createdAt,value
2022-11-05T00:00:34.971Z,16.83
2022-11-05T00:03:20.360Z,17.85
2022-11-05T00:06:08.305Z,18.17
2022-11-05T00:08:53.997Z,18.55
2022-11-05T00:11:41.282Z,18.42
2022-11-05T00:14:27.137Z,23.38
2022-11-05T00:16:53.721Z,24.65
2022-11-05T00:19:20.625Z,25.05
2022-11-05T00:22:06.540Z,21.02
2022-11-05T00:24:52.318Z,24.27
2022-11-05T00:27:19.077Z,22.25
2022-11-05T00:29:45.674Z,22.02
2022-11-05T00:32:13.344Z,19.48
2022-11-05T00:34:39.933Z,19.00
2022-11-05T00:37:07.175Z,19.88
2022-11-05T00:39:33.784Z,19.88
2022-11-05T00:42:19.779Z,20.00
2022-11-05T00:45:01.792Z,19.08
2022-11-05T00:47:48.729Z,18.85
2022-11-05T00:50:15.476Z,17.95
2022-11-05T00:52:58.023Z,19.65
2022-11-05T00:55:34.056Z,18.15
2022-11-05T00:58:03.519Z,18.67
2022-11-05T01:00:32.304Z,18.30
2022-11-05T01:03:01.530Z,17.20
2022-11-05T01:05:29.839Z,16.15
2022-11-05T01:07:57.625Z,17.27
2022-11-05T01:10:25.192Z,16.65
2022-11-05T01:12:52.272Z,16.90
2022-11-05T01:15:20.121Z,18.10
2022-11-05T01:17:47.502Z,16.70
2022-11-05T01:20:15.029Z,14.48
2022-11-05T01:22:42.521Z,16.02
2022-11-05T01:25:10.109Z,15.93
2022-11-05T01:27:37.464Z,15.18
2022-11-05T01:30:07.490Z,13.98
2022-11-05T01:32:36.442Z,14.85
2022-11-05T01:35:05.634Z,14.48
2022-11-05T01:37:33.755Z,16.38
2022-11-05T01:40:00.396Z,15.45
2022-11-05T01:42:28.627Z,15.00
2022-11-05T01:44:59.974Z,15.45
2022-11-05T01:47:38.223Z,15.70
2022-11-05T01:50:36.117Z,14.27
2022-11-05T01:53:14.899Z,12.43
2022-11-05T01:55:51.739Z,12.65
2022-11-05T01:58:22.736Z,13.10
2022-11-05T02:00:50.415Z,12.70
2022-11-05T02:03:17.995Z,11.88
2022-11-05T02:05:46.576Z,12.07
2022-11-05T02:08:25.961Z,11.95
2022-11-05T02:10:53.346Z,11.98
2022-11-05T02:13:19.913Z,12.65
2022-11-05T02:16:19.317Z,13.45
2022-11-05T02:19:03.281Z,11.77
2022-11-05T02:21:36.451Z,11.32
2022-11-05T02:24:21.240Z,12.43
2022-11-05T02:27:15.951Z,12.80
2022-11-05T02:30:04.054Z,11.90
2022-11-05T02:32:51.876Z,12.07
2022-11-05T02:35:49.172Z,13.07
2022-11-05T02:38:37.310Z,12.95
2022-11-05T02:41:30.437Z,12.60
2022-11-05T02:44:35.361Z,9.57
2022-11-05T02:47:41.205Z,12.20
2022-11-05T02:50:24.674Z,11.93
2022-11-05T02:52:59.842Z,11.48
2022-11-05T02:55:45.302Z,12.48
2022-11-05T02:58:13.735Z,12.02
2022-11-05T03:00:54.658Z,13.43
2022-11-05T03:03:32.523Z,12.52
2022-11-05T03:06:27.546Z,12.10
2022-11-05T03:09:15.306Z,13.25
2022-11-05T03:12:02.846Z,13.88
2022-11-05T03:14:50.991Z,13.85
2022-11-05T03:17:55.631Z,13.27
2022-11-05T03:20:47.962Z,14.20
2022-11-05T03:23:26.751Z,15.85
2022-11-05T03:26:17.550Z,14.70
2022-11-05T03:28:52.067Z,15.90
2022-11-05T03:31:20.499Z,16.58
2022-11-05T03:33:48.911Z,18.60
2022-11-05T03:36:21.917Z,17.55
2022-11-05T03:38:51.327Z,19.17
2022-11-05T03:41:21.033Z,18.52
2022-11-05T03:43:52.464Z,18.75
2022-11-05T03:46:28.900Z,19.92
2022-11-05T03:48:58.937Z,20.10
2022-11-05T03:51:48.792Z,20.58
2022-11-05T03:54:15.563Z,20.80
2022-11-05T03:57:05.976Z,20.65
2022-11-05T03:59:38.369Z,20.08
2022-11-05T04:02:05.660Z,21.13
2022-11-05T04:04:32.341Z,21.02
2022-11-05T04:07:18.144Z,21.77
2022-11-05T04:10:03.225Z,22.63
2022-11-05T04:12:48.982Z,23.17
2022-11-05T04:15:15.712Z,26.10
2022-11-05T04:17:43.004Z,28.17
2022-11-05T04:20:28.553Z,29.98
2022-11-05T04:23:25.510Z,30.50
2022-11-05T04:25:52.104Z,31.88
2022-11-05T04:28:19.639Z,32.33
2022-11-05T04:30:46.269Z,32.80
2022-11-05T04:33:17.382Z,33.63
2022-11-05T04:35:47.022Z,35.80
2022-11-05T04:38:17.186Z,37.50
2022-11-05T04:40:45.270Z,37.72
2022-11-05T04:43:15.623Z,38.42
2022-11-05T04:45:43.199Z,38.53
2022-11-05T04:48:11.261Z,39.58
2022-11-05T04:50:38.025Z,37.95
2022-11-05T04:53:04.906Z,44.97
2022-11-05T04:55:32.272Z,42.80
2022-11-05T04:57:58.995Z,39.55
2022-11-05T05:00:26.422Z,39.67
2022-11-05T05:02:53.068Z,39.72
2022-11-05T05:05:21.468Z,40.67
2022-11-05T05:07:48.081Z,41.15
2022-11-05T05:10:15.354Z,40.97
2022-11-05T05:12:41.929Z,41.00
2022-11-05T05:15:09.371Z,39.95
2022-11-05T05:17:36.023Z,39.22
2022-11-05T05:20:22.315Z,39.65
2022-11-05T05:22:55.484Z,39.28
2022-11-05T05:25:23.531Z,40.42
2022-11-05T05:27:50.500Z,39.67
2022-11-05T05:30:18.325Z,39.17
2022-11-05T05:32:44.945Z,41.13
2022-11-05T05:35:12.279Z,38.47
2022-11-05T05:37:38.909Z,39.70
2022-11-05T05:40:06.671Z,37.95
2022-11-05T05:42:36.320Z,38.85
2022-11-05T05:45:06.670Z,36.00
2022-11-05T05:47:33.219Z,37.03
2022-11-05T05:50:00.443Z,36.88
2022-11-05T05:52:27.017Z,39.92
2022-11-05T05:54:54.276Z,39.40
2022-11-05T05:57:20.866Z,38.42
2022-11-05T05:59:48.111Z,37.35
2022-11-05T06:02:15.900Z,40.70
2022-11-05T06:04:42.975Z,41.30
2022-11-05T06:07:10.238Z,42.10
2022-11-05T06:09:36.878Z,40.92
2022-11-05T06:12:04.410Z,39.85
2022-11-05T06:14:30.983Z,39.78
2022-11-05T06:16:58.206Z,40.58
2022-11-05T06:19:24.800Z,39.90
2022-11-05T06:21:52.047Z,40.00
2022-11-05T06:24:18.639Z,40.53
2022-11-05T06:26:46.055Z,40.28
2022-11-05T06:29:12.728Z,39.30
2022-11-05T06:31:39.999Z,37.83
2022-11-05T06:34:06.769Z,38.05
2022-11-05T06:36:34.111Z,39.78
2022-11-05T06:39:00.700Z,38.92
2022-11-05T06:41:27.965Z,38.45
2022-11-05T06:43:54.648Z,38.70
2022-11-05T06:46:22.021Z,38.65
2022-11-05T06:48:48.635Z,37.88
2022-11-05T06:51:16.166Z,37.00
2022-11-05T06:53:42.773Z,37.45
2022-11-05T06:56:10.023Z,37.35
2022-11-05T06:58:37.087Z,35.92
2022-11-05T07:01:09.751Z,36.42
2022-11-05T07:03:37.680Z,36.13
2022-11-05T07:06:05.988Z,35.92
2022-11-05T07:08:35.460Z,35.03
2022-11-05T07:11:02.199Z,35.47
2022-11-05T07:13:29.624Z,35.03
2022-11-05T07:15:56.581Z,35.03
2022-11-05T07:18:24.237Z,34.85
2022-11-05T07:20:50.815Z,34.38
2022-11-05T07:23:18.171Z,34.88
2022-11-05T07:25:45.022Z,34.97
2022-11-05T07:28:11.989Z,33.55
2022-11-05T07:30:39.214Z,33.45
2022-11-05T07:33:06.477Z,35.60
2022-11-05T07:35:33.213Z,34.22
2022-11-05T07:38:00.509Z,35.25
2022-11-05T07:40:29.106Z,35.45
2022-11-05T07:43:01.381Z,36.58
2022-11-05T07:45:29.666Z,36.90
2022-11-05T07:48:02.615Z,31.02
2022-11-05T07:50:31.611Z,27.10
2022-11-05T07:53:07.491Z,24.63
2022-11-05T07:55:35.378Z,20.75
2022-11-05T07:58:03.462Z,17.40
2022-11-05T08:00:30.741Z,16.88
2022-11-05T08:03:18.341Z,15.32
2022-11-05T08:05:47.474Z,13.65
2022-11-05T08:08:17.463Z,12.07
2022-11-05T08:10:44.153Z,11.82
2022-11-05T08:13:13.559Z,11.55
2022-11-05T08:15:42.103Z,10.43
2022-11-05T08:18:13.234Z,9.98
2022-11-05T08:20:41.053Z,12.38
2022-11-05T08:23:09.055Z,11.68
2022-11-05T08:25:39.568Z,11.50
2022-11-05T08:28:13.761Z,11.57
2022-11-05T08:30:41.023Z,11.73
2022-11-05T08:33:12.083Z,11.32
2022-11-05T08:35:39.955Z,11.65
2022-11-05T08:38:08.244Z,11.70
2022-11-05T08:40:36.189Z,10.27
2022-11-05T08:43:05.838Z,11.52
2022-11-05T08:45:33.215Z,11.50
2022-11-05T08:48:01.922Z,11.63
2022-11-05T08:50:28.821Z,11.38
2022-11-05T08:52:56.361Z,11.15
2022-11-05T08:55:23.337Z,11.10
2022-11-05T08:57:59.097Z,11.10
2022-11-05T09:00:26.877Z,10.40
2022-11-05T09:02:54.334Z,10.27
2022-11-05T09:05:21.449Z,11.45
2022-11-05T09:07:49.665Z,10.35
2022-11-05T09:10:16.395Z,9.90
2022-11-05T09:12:44.113Z,11.00
2022-11-05T09:15:11.107Z,10.38
2022-11-05T09:17:38.164Z,9.50
2022-11-05T09:20:07.294Z,10.27
2022-11-05T09:22:37.867Z,10.30
2022-11-05T09:25:08.467Z,11.45
2022-11-05T09:27:35.650Z,9.57
2022-11-05T09:30:03.582Z,11.40
2022-11-05T09:32:33.951Z,10.52
2022-11-05T09:35:01.486Z,10.55
2022-11-05T09:37:29.190Z,9.82
2022-11-05T09:39:56.409Z,9.60
2022-11-05T09:42:28.252Z,8.82
2022-11-05T09:45:01.993Z,9.10
2022-11-05T09:47:35.181Z,9.75
2022-11-05T09:50:07.721Z,10.35
2022-11-05T09:52:35.216Z,9.18
2022-11-05T09:55:04.160Z,10.32
2022-11-05T09:57:45.624Z,9.73
2022-11-05T10:00:16.707Z,11.00
2022-11-05T10:02:52.349Z,9.82
2022-11-05T10:05:20.647Z,11.10
2022-11-05T10:07:57.656Z,8.27
2022-11-05T10:10:41.842Z,8.80
2022-11-05T10:13:35.169Z,8.40
2022-11-05T10:16:25.433Z,8.93
2022-11-05T10:18:59.384Z,8.48
2022-11-05T10:21:51.493Z,9.63
2022-11-05T10:24:16.254Z,9.00
2022-11-05T10:26:46.411Z,9.63
2022-11-05T10:29:19.297Z,8.75
2022-11-05T10:31:46.177Z,9.23
2022-11-05T10:34:17.956Z,8.98
2022-11-05T10:36:44.649Z,9.43
2022-11-05T10:39:19.096Z,9.32
2022-11-05T10:42:20.901Z,8.38
2022-11-05T10:44:53.918Z,7.57
2022-11-05T10:47:37.031Z,8.73
2022-11-05T10:50:14.026Z,7.93
2022-11-05T10:52:53.631Z,8.25
2022-11-05T10:55:35.443Z,8.23
2022-11-05T10:58:25.395Z,7.90
2022-11-05T11:00:52.657Z,9.63
2022-11-05T11:03:45.001Z,8.68
2022-11-05T11:06:21.682Z,6.17
2022-11-05T11:08:50.180Z,8.43
2022-11-05T11:11:36.684Z,8.75
2022-11-05T11:14:06.213Z,8.25
2022-11-05T11:16:39.764Z,7.50
2022-11-05T11:19:23.172Z,7.90
2022-11-05T11:22:14.013Z,7.22
2022-11-05T11:24:48.099Z,7.70
2022-11-05T11:27:22.265Z,7.68
2022-11-05T11:29:55.862Z,8.35
2022-11-05T11:32:27.257Z,7.85
2022-11-05T11:34:57.442Z,7.85
2022-11-05T11:37:41.738Z,7.60
2022-11-05T11:40:22.977Z,7.82
2022-11-05T11:42:54.200Z,8.10
2022-11-05T11:45:28.867Z,7.55
2022-11-05T11:47:57.140Z,7.32
2022-11-05T11:50:43.030Z,8.10
2022-11-05T11:53:21.898Z,8.05
2022-11-05T11:55:55.258Z,8.73
2022-11-05T11:58:23.558Z,7.53
2022-11-05T12:00:59.423Z,7.50
2022-11-05T12:03:37.953Z,7.07
2022-11-05T12:06:16.284Z,8.30
2022-11-05T12:09:07.296Z,7.15
2022-11-05T12:11:50.878Z,7.57
2022-11-05T12:17:04.456Z,7.47
2022-11-05T12:19:52.540Z,6.70
2022-11-05T12:22:42.868Z,7.07
2022-11-05T12:25:13.257Z,7.38
2022-11-05T12:28:07.212Z,7.40
2022-11-05T12:31:00.376Z,7.95
2022-11-05T12:33:47.188Z,8.60
2022-11-05T12:36:30.716Z,7.53
2022-11-05T12:41:40.437Z,5.93
2022-11-05T12:44:15.365Z,6.88
2022-11-05T12:46:58.534Z,7.22
2022-11-05T12:49:33.918Z,6.15
2022-11-05T12:52:26.889Z,6.53
2022-11-05T12:55:17.928Z,5.55
2022-11-05T12:57:47.882Z,5.28
2022-11-05T13:00:22.608Z,6.57
2022-11-05T13:03:23.116Z,5.47
2022-11-05T13:06:06.358Z,6.18
2022-11-05T13:08:48.784Z,6.28
2022-11-05T13:11:19.247Z,6.18
2022-11-05T13:14:00.314Z,5.53
2022-11-05T13:16:31.014Z,4.93
2022-11-05T13:19:06.658Z,5.07
2022-11-05T13:21:36.414Z,4.85
2022-11-05T13:24:17.658Z,4.68
2022-11-05T13:27:15.035Z,4.50
2022-11-05T13:29:49.198Z,4.90
2022-11-05T13:32:42.087Z,4.47
2022-11-05T13:35:16.740Z,5.37
2022-11-05T13:38:05.759Z,4.97
2022-11-05T13:40:44.644Z,4.50
2022-11-05T13:43:33.935Z,4.57
2022-11-05T13:46:25.291Z,3.72
2022-11-05T13:48:52.519Z,4.45
2022-11-05T13:51:39.358Z,4.20
2022-11-05T13:54:12.484Z,4.30
2022-11-05T13:57:06.344Z,3.80
2022-11-05T13:59:57.023Z,4.10
2022-11-05T14:02:34.346Z,3.78
2022-11-05T14:05:02.623Z,4.10
2022-11-05T14:07:32.640Z,3.95
2022-11-05T14:10:26.777Z,3.78
2022-11-05T14:12:57.291Z,3.17
2022-11-05T14:15:28.460Z,3.65
2022-11-05T14:18:05.454Z,3.83
2022-11-05T14:20:32.693Z,2.97
2022-11-05T14:23:17.639Z,3.83
2022-11-05T14:25:44.901Z,3.88
2022-11-05T14:28:36.737Z,3.35
2022-11-05T14:31:41.167Z,3.63
2022-11-05T14:34:12.074Z,4.30
2022-11-05T14:36:43.193Z,3.83
2022-11-05T14:39:24.871Z,3.30
2022-11-05T14:41:58.303Z,3.65
2022-11-05T14:44:26.434Z,3.95
2022-11-05T14:46:57.264Z,3.55
2022-11-05T14:49:32.108Z,3.63
2022-11-05T14:52:05.127Z,3.78
2022-11-05T14:54:49.227Z,3.95
2022-11-05T14:57:44.746Z,3.78
2022-11-05T15:00:34.343Z,4.13
2022-11-05T15:03:04.096Z,3.72
2022-11-05T15:05:31.336Z,3.80
2022-11-05T15:07:58.909Z,3.60
2022-11-05T15:10:33.551Z,3.97
2022-11-05T15:13:05.931Z,4.05
2022-11-05T15:15:43.792Z,4.10
2022-11-05T15:18:33.265Z,4.15
2022-11-05T15:21:03.424Z,3.85
2022-11-05T15:23:42.546Z,3.90
2022-11-05T15:26:22.432Z,3.72
2022-11-05T15:28:54.023Z,3.90
2022-11-05T15:31:37.442Z,3.67
2022-11-05T15:34:25.406Z,3.38
2022-11-05T15:37:25.560Z,3.10
2022-11-05T15:39:54.582Z,3.03
2022-11-05T15:42:26.183Z,2.92
2022-11-05T15:44:55.660Z,2.45
2022-11-05T15:47:34.188Z,2.90
2022-11-05T15:50:14.939Z,3.30
2022-11-05T15:52:51.545Z,2.65
2022-11-05T15:55:23.888Z,2.60
2022-11-05T15:58:00.412Z,2.65
2022-11-05T16:00:30.926Z,3.13
2022-11-05T16:03:04.534Z,2.80
2022-11-05T16:05:35.386Z,2.45
2022-11-05T16:08:04.163Z,3.47
2022-11-05T16:10:38.782Z,2.88
2022-11-05T16:13:40.780Z,2.53
2022-11-05T16:16:14.182Z,2.63
2022-11-05T16:18:41.571Z,2.38
2022-11-05T16:21:22.806Z,2.38
2022-11-05T16:23:49.485Z,2.55
2022-11-05T16:29:29.218Z,2.88
2022-11-05T16:31:57.657Z,2.47
2022-11-05T16:34:27.255Z,3.30
2022-11-05T16:36:56.557Z,3.38
2022-11-05T16:39:23.367Z,2.92
2022-11-05T16:41:50.419Z,2.95
2022-11-05T16:44:17.135Z,2.83
2022-11-05T16:46:47.612Z,3.17
2022-11-05T16:49:15.716Z,2.88
2022-11-05T16:51:43.436Z,3.13
2022-11-05T16:54:10.823Z,3.28
2022-11-05T16:56:39.724Z,3.20
2022-11-05T16:59:09.616Z,3.05
2022-11-05T17:01:39.271Z,2.92
2022-11-05T17:04:06.593Z,4.97
2022-11-05T17:06:33.272Z,4.22
2022-11-05T17:09:00.220Z,3.58
2022-11-05T17:11:26.833Z,3.25
2022-11-05T17:13:53.938Z,4.40
2022-11-05T17:16:20.596Z,4.80
2022-11-05T17:18:47.965Z,6.45
2022-11-05T17:21:15.310Z,4.70
2022-11-05T17:23:42.545Z,4.63
2022-11-05T17:26:11.797Z,4.57
2022-11-05T17:28:40.768Z,4.15
2022-11-05T17:31:09.717Z,4.32
2022-11-05T17:33:37.029Z,4.85
2022-11-05T17:36:08.037Z,3.78
2022-11-05T17:38:35.699Z,4.22
2022-11-05T17:41:02.416Z,3.60
2022-11-05T17:43:29.751Z,4.53
2022-11-05T17:46:01.547Z,4.40
2022-11-05T17:48:31.602Z,4.68
2022-11-05T17:50:58.299Z,4.72
2022-11-05T17:53:25.018Z,4.38
2022-11-05T17:55:51.647Z,4.70
2022-11-05T17:58:18.784Z,5.28
2022-11-05T18:00:46.211Z,5.13
2022-11-05T18:03:13.825Z,4.55
2022-11-05T18:05:41.871Z,5.10
2022-11-05T18:08:09.414Z,4.43
2022-11-05T18:10:37.783Z,4.93
2022-11-05T18:13:05.275Z,4.57
2022-11-05T18:15:32.050Z,5.55
2022-11-05T18:17:58.956Z,4.60
2022-11-05T18:20:25.736Z,5.10
2022-11-05T18:22:52.444Z,4.80
2022-11-05T18:25:19.372Z,4.78
2022-11-05T18:27:46.666Z,6.03
2022-11-05T18:30:15.311Z,7.40
2022-11-05T18:32:44.503Z,7.75
2022-11-05T18:35:11.736Z,7.07
2022-11-05T18:37:39.561Z,7.88
2022-11-05T18:40:07.652Z,6.88
2022-11-05T18:42:34.997Z,7.13
2022-11-05T18:45:01.740Z,6.53
2022-11-05T18:47:29.085Z,7.43
2022-11-05T18:49:55.721Z,5.63
2022-11-05T18:52:22.786Z,5.53
2022-11-05T18:54:49.487Z,5.72
2022-11-05T18:57:16.985Z,6.38
2022-11-05T18:59:46.544Z,5.72
2022-11-05T19:02:14.954Z,5.45
2022-11-05T19:05:00.278Z,5.00
2022-11-05T19:07:29.319Z,5.55
2022-11-05T19:09:56.169Z,5.50
2022-11-05T19:12:23.425Z,5.63
2022-11-05T19:14:50.097Z,5.63
2022-11-05T19:17:17.361Z,5.93
2022-11-05T19:19:44.102Z,5.50
2022-11-05T19:22:11.633Z,5.68
2022-11-05T19:24:38.283Z,6.30
2022-11-05T19:27:05.144Z,6.45
2022-11-05T19:29:31.840Z,6.85
2022-11-05T19:31:59.166Z,7.78
2022-11-05T19:34:25.835Z,7.13
2022-11-05T19:36:53.175Z,7.63
2022-11-05T19:39:19.834Z,6.75
2022-11-05T19:41:48.627Z,6.38
2022-11-05T19:44:15.203Z,6.88
2022-11-05T19:46:44.162Z,6.55
2022-11-05T19:49:11.164Z,6.63
2022-11-05T19:51:38.275Z,6.72
2022-11-05T19:54:06.210Z,6.55
2022-11-05T19:56:34.605Z,7.43
2022-11-05T19:59:03.176Z,7.68
2022-11-05T20:01:31.398Z,7.38
2022-11-05T20:03:59.315Z,7.35
2022-11-05T20:06:32.056Z,7.38
2022-11-05T20:11:50.021Z,7.68
2022-11-05T20:14:17.168Z,6.32
2022-11-05T20:16:45.813Z,6.90
2022-11-05T20:19:15.420Z,6.07
2022-11-05T20:21:43.392Z,6.45
2022-11-05T20:24:12.428Z,6.03
2022-11-05T20:26:39.880Z,6.70
2022-11-05T20:29:07.292Z,7.15
2022-11-05T20:31:34.367Z,7.18
2022-11-05T20:34:01.860Z,7.28
2022-11-05T20:36:29.656Z,6.25
2022-11-05T20:38:58.407Z,6.60
2022-11-05T20:41:25.995Z,6.75
2022-11-05T20:43:53.913Z,6.65
2022-11-05T20:46:22.263Z,6.43
2022-11-05T20:48:49.917Z,6.18
2022-11-05T20:51:19.161Z,5.57
2022-11-05T20:53:47.093Z,6.15
2022-11-05T20:56:19.458Z,5.47
2022-11-05T20:58:47.451Z,5.78
2022-11-05T21:01:16.391Z,5.70
2022-11-05T21:03:45.020Z,5.35
2022-11-05T21:06:12.689Z,5.90
2022-11-05T21:08:40.557Z,5.35
2022-11-05T21:11:07.490Z,5.53
2022-11-05T21:13:34.667Z,5.50
2022-11-05T21:16:02.347Z,5.28
2022-11-05T21:18:32.278Z,4.70
2022-11-05T21:21:02.234Z,5.25
2022-11-05T21:23:29.762Z,4.30
2022-11-05T21:25:56.446Z,4.38
2022-11-05T21:28:23.775Z,4.88
2022-11-05T21:30:50.424Z,4.90
2022-11-05T21:33:18.977Z,5.20
2022-11-05T21:35:47.587Z,4.75
2022-11-05T21:38:16.434Z,4.80
2022-11-05T21:40:43.759Z,4.50
2022-11-05T21:43:12.129Z,5.07
2022-11-05T21:45:40.517Z,5.25
2022-11-05T21:48:08.680Z,5.25
2022-11-05T21:50:56.751Z,4.13
2022-11-05T21:53:43.136Z,4.75
2022-11-05T21:56:41.893Z,5.03
2022-11-05T21:59:31.833Z,4.47
2022-11-05T22:02:02.838Z,5.07
2022-11-05T22:04:31.341Z,4.43
2022-11-05T22:06:58.770Z,4.47
2022-11-05T22:09:26.282Z,4.65
2022-11-05T22:11:54.607Z,4.70
2022-11-05T22:14:23.440Z,3.95
2022-11-05T22:16:50.151Z,4.03
2022-11-05T22:19:17.634Z,4.70
2022-11-05T22:21:44.282Z,4.50
2022-11-05T22:24:10.987Z,4.32
2022-11-05T22:26:40.816Z,4.18
2022-11-05T22:29:08.114Z,4.03
2022-11-05T22:31:36.686Z,3.90
2022-11-05T22:34:04.526Z,4.18
2022-11-05T22:36:32.627Z,4.25
2022-11-05T22:38:59.305Z,3.90
2022-11-05T22:41:26.736Z,4.40
2022-11-05T22:43:53.342Z,3.83
2022-11-05T22:46:23.591Z,4.10
2022-11-05T22:48:51.074Z,4.47
2022-11-05T22:51:23.096Z,3.85
2022-11-05T22:53:50.654Z,3.78
2022-11-05T22:56:20.151Z,4.18
2022-11-05T22:58:48.351Z,3.58
2022-11-05T23:01:15.903Z,4.07
2022-11-05T23:03:45.391Z,4.43
2022-11-05T23:06:36.543Z,3.92
2022-11-05T23:09:35.319Z,3.75
2022-11-05T23:12:04.580Z,3.78
2022-11-05T23:14:31.584Z,4.03
2022-11-05T23:17:17.067Z,3.83
2022-11-05T23:20:02.557Z,4.18
2022-11-05T23:22:50.631Z,4.53
2022-11-05T23:25:20.544Z,3.88
2022-11-05T23:27:50.215Z,3.90
2022-11-05T23:30:22.308Z,4.03
2022-11-05T23:32:50.559Z,4.60
2022-11-05T23:35:38.204Z,4.05
2022-11-05T23:38:24.144Z,3.80
2022-11-05T23:41:09.394Z,3.88
2022-11-05T23:43:55.129Z,4.25
2022-11-05T23:46:40.709Z,3.92
2022-11-05T23:49:07.978Z,4.10
2022-11-05T23:51:34.578Z,3.10
2022-11-05T23:54:01.834Z,3.63
2022-11-05T23:56:28.425Z,4.13
2022-11-05T23:58:55.670Z,3.60
